sensor_id;sensor_type;location;lat;lon;timestamp;temperature;humidity
55693;DHT22;41590;53.366;5.212;2022-11-15T00:00:35;7.70;99.90
55693;DHT22;41590;53.366;5.212;2022-11-15T00:03:02;7.70;99.90
55693;DHT22;41590;53.366;5.212;2022-11-15T00:05:53;7.80;99.90
55693;DHT22;41590;53.366;5.212;2022-11-15T00:08:21;7.70;99.90
55693;DHT22;41590;53.366;5.212;2022-11-15T00:11:10;7.70;99.90
55693;DHT22;41590;53.366;5.212;2022-11-15T00:13:58;8.00;99.90
55693;DHT22;41590;53.366;5.212;2022-11-15T00:16:31;7.60;99.90
55693;DHT22;41590;53.366;5.212;2022-11-15T00:25:44;8.00;99.90
55693;DHT22;41590;53.366;5.212;2022-11-15T00:28:09;7.50;99.90
55693;DHT22;41590;53.366;5.212;2022-11-15T00:34:16;7.60;99.90
55693;DHT22;41590;53.366;5.212;2022-11-15T00:43:32;7.70;99.90
55693;DHT22;41590;53.366;5.212;2022-11-15T00:49:21;8.10;99.90
55693;DHT22;41590;53.366;5.212;2022-11-15T00:52:07;7.90;99.90
55693;DHT22;41590;53.366;5.212;2022-11-15T00:58:13;7.50;99.90
55693;DHT22;41590;53.366;5.212;2022-11-15T01:07:27;7.80;99.90
55693;DHT22;41590;53.366;5.212;2022-11-15T01:10:23;7.90;99.90
55693;DHT22;41590;53.366;5.212;2022-11-15T01:12:54;7.70;99.90
55693;DHT22;41590;53.366;5.212;2022-11-15T01:15:22;7.70;99.90
55693;DHT22;41590;53.366;5.212;2022-11-15T01:17:53;7.50;99.90
55693;DHT22;41590;53.366;5.212;2022-11-15T01:20:18;7.90;99.90
55693;DHT22;41590;53.366;5.212;2022-11-15T01:22:50;7.80;99.90
55693;DHT22;41590;53.366;5.212;2022-11-15T01:25:29;7.80;99.90
55693;DHT22;41590;53.366;5.212;2022-11-15T01:28:21;7.60;99.90
55693;DHT22;41590;53.366;5.212;2022-11-15T01:31:10;7.50;99.90
55693;DHT22;41590;53.366;5.212;2022-11-15T01:33:44;7.10;99.90
55693;DHT22;41590;53.366;5.212;2022-11-15T01:36:28;6.90;99.90
55693;DHT22;41590;53.366;5.212;2022-11-15T01:39:22;6.90;99.90
55693;DHT22;41590;53.366;5.212;2022-11-15T01:41:55;7.50;99.90
55693;DHT22;41590;53.366;5.212;2022-11-15T01:44:48;6.90;99.90
55693;DHT22;41590;53.366;5.212;2022-11-15T01:47:23;6.70;99.90
55693;DHT22;41590;53.366;5.212;2022-11-15T01:49:59;7.20;99.90
55693;DHT22;41590;53.366;5.212;2022-11-15T01:52:42;6.70;99.90
55693;DHT22;41590;53.366;5.212;2022-11-15T01:55:18;6.80;99.90
55693;DHT22;41590;53.366;5.212;2022-11-15T01:57:47;6.70;99.90
55693;DHT22;41590;53.366;5.212;2022-11-15T02:00:49;6.90;99.90
55693;DHT22;41590;53.366;5.212;2022-11-15T02:06:57;6.60;99.90
55693;DHT22;41590;53.366;5.212;2022-11-15T02:09:25;6.90;99.90
55693;DHT22;41590;53.366;5.212;2022-11-15T02:12:27;7.00;99.90
55693;DHT22;41590;53.366;5.212;2022-11-15T02:14:56;7.10;99.90
55693;DHT22;41590;53.366;5.212;2022-11-15T02:20:56;6.90;99.90
55693;DHT22;41590;53.366;5.212;2022-11-15T02:33:20;6.60;99.90
55693;DHT22;41590;53.366;5.212;2022-11-15T02:36:02;7.10;99.90
55693;DHT22;41590;53.366;5.212;2022-11-15T02:47:56;7.10;99.90
55693;DHT22;41590;53.366;5.212;2022-11-15T02:50:43;7.00;99.90
55693;DHT22;41590;53.366;5.212;2022-11-15T02:53:20;6.40;99.90
55693;DHT22;41590;53.366;5.212;2022-11-15T02:56:07;6.50;99.90
55693;DHT22;41590;53.366;5.212;2022-11-15T03:11:43;6.70;99.90
55693;DHT22;41590;53.366;5.212;2022-11-15T03:18:02;7.40;99.90
55693;DHT22;41590;53.366;5.212;2022-11-15T03:20:42;6.70;99.90
55693;DHT22;41590;53.366;5.212;2022-11-15T03:23:22;6.70;99.90
55693;DHT22;41590;53.366;5.212;2022-11-15T03:25:59;6.80;99.90
55693;DHT22;41590;53.366;5.212;2022-11-15T03:28:42;6.90;99.90
55693;DHT22;41590;53.366;5.212;2022-11-15T03:31:11;7.20;99.90
55693;DHT22;41590;53.366;5.212;2022-11-15T03:34:07;7.60;99.90
55693;DHT22;41590;53.366;5.212;2022-11-15T03:36:42;7.60;99.90
55693;DHT22;41590;53.366;5.212;2022-11-15T03:39:09;7.60;99.90
55693;DHT22;41590;53.366;5.212;2022-11-15T03:45:08;7.80;99.90
55693;DHT22;41590;53.366;5.212;2022-11-15T03:47:43;7.20;99.90
55693;DHT22;41590;53.366;5.212;2022-11-15T03:50:24;7.80;99.90
55693;DHT22;41590;53.366;5.212;2022-11-15T03:52:55;7.10;99.90
55693;DHT22;41590;53.366;5.212;2022-11-15T03:55:54;7.50;99.90
55693;DHT22;41590;53.366;5.212;2022-11-15T03:58:26;7.30;99.90
55693;DHT22;41590;53.366;5.212;2022-11-15T04:00:51;7.50;99.90
55693;DHT22;41590;53.366;5.212;2022-11-15T04:03:26;7.20;99.90
55693;DHT22;41590;53.366;5.212;2022-11-15T04:05:57;7.20;99.90
55693;DHT22;41590;53.366;5.212;2022-11-15T04:08:31;7.20;99.90
55693;DHT22;41590;53.366;5.212;2022-11-15T04:14:38;7.20;99.90
55693;DHT22;41590;53.366;5.212;2022-11-15T04:17:46;7.90;99.90
55693;DHT22;41590;53.366;5.212;2022-11-15T04:27:19;8.00;99.90
55693;DHT22;41590;53.366;5.212;2022-11-15T04:30:13;7.30;99.90
55693;DHT22;41590;53.366;5.212;2022-11-15T04:32:43;8.30;99.90
55693;DHT22;41590;53.366;5.212;2022-11-15T04:39:10;7.80;99.90
55693;DHT22;41590;53.366;5.212;2022-11-15T04:41:54;7.60;99.90
55693;DHT22;41590;53.366;5.212;2022-11-15T04:44:25;8.20;99.90
55693;DHT22;41590;53.366;5.212;2022-11-15T04:47:13;7.50;99.90
55693;DHT22;41590;53.366;5.212;2022-11-15T04:52:38;8.60;99.90
55693;DHT22;41590;53.366;5.212;2022-11-15T04:55:04;8.00;99.90
55693;DHT22;41590;53.366;5.212;2022-11-15T04:57:30;8.50;99.90
55693;DHT22;41590;53.366;5.212;2022-11-15T04:59:56;8.10;99.90
55693;DHT22;41590;53.366;5.212;2022-11-15T05:02:32;7.60;99.90
55693;DHT22;41590;53.366;5.212;2022-11-15T05:05:20;7.70;99.90
55693;DHT22;41590;53.366;5.212;2022-11-15T05:07:49;7.60;99.90
55693;DHT22;41590;53.366;5.212;2022-11-15T05:10:27;7.90;99.90
55693;DHT22;41590;53.366;5.212;2022-11-15T05:13:03;7.70;99.90
55693;DHT22;41590;53.366;5.212;2022-11-15T05:15:49;7.70;99.90
55693;DHT22;41590;53.366;5.212;2022-11-15T05:18:27;7.80;99.90
55693;DHT22;41590;53.366;5.212;2022-11-15T05:20:54;7.70;99.90
55693;DHT22;41590;53.366;5.212;2022-11-15T05:23:25;8.10;99.90
55693;DHT22;41590;53.366;5.212;2022-11-15T05:26:00;7.80;99.90
55693;DHT22;41590;53.366;5.212;2022-11-15T05:28:45;8.40;99.90
55693;DHT22;41590;53.366;5.212;2022-11-15T05:31:14;8.90;99.90
55693;DHT22;41590;53.366;5.212;2022-11-15T05:33:44;8.80;99.90
55693;DHT22;41590;53.366;5.212;2022-11-15T05:39:07;7.80;99.90
55693;DHT22;41590;53.366;5.212;2022-11-15T05:41:54;7.80;99.90
55693;DHT22;41590;53.366;5.212;2022-11-15T05:44:23;8.50;99.90
55693;DHT22;41590;53.366;5.212;2022-11-15T05:46:58;8.90;99.90
55693;DHT22;41590;53.366;5.212;2022-11-15T05:49:27;7.90;99.90
55693;DHT22;41590;53.366;5.212;2022-11-15T05:51:59;8.30;99.90
55693;DHT22;41590;53.366;5.212;2022-11-15T05:54:25;9.00;99.90
55693;DHT22;41590;53.366;5.212;2022-11-15T05:56:53;7.80;99.90
55693;DHT22;41590;53.366;5.212;2022-11-15T05:59:20;7.80;99.90
55693;DHT22;41590;53.366;5.212;2022-11-15T06:01:46;7.90;99.90
55693;DHT22;41590;53.366;5.212;2022-11-15T06:04:15;8.20;99.90
55693;DHT22;41590;53.366;5.212;2022-11-15T06:06:41;8.70;99.90
55693;DHT22;41590;53.366;5.212;2022-11-15T06:09:15;7.70;99.90
55693;DHT22;41590;53.366;5.212;2022-11-15T06:11:49;8.90;99.90
55693;DHT22;41590;53.366;5.212;2022-11-15T06:14:20;7.90;99.90
55693;DHT22;41590;53.366;5.212;2022-11-15T06:16:54;8.10;99.90
55693;DHT22;41590;53.366;5.212;2022-11-15T06:19:23;8.80;99.90
55693;DHT22;41590;53.366;5.212;2022-11-15T06:21:51;9.10;99.90
55693;DHT22;41590;53.366;5.212;2022-11-15T06:24:18;8.50;99.90
55693;DHT22;41590;53.366;5.212;2022-11-15T06:26:45;9.20;99.90
55693;DHT22;41590;53.366;5.212;2022-11-15T06:29:25;8.30;99.90
55693;DHT22;41590;53.366;5.212;2022-11-15T06:31:51;9.10;99.90
55693;DHT22;41590;53.366;5.212;2022-11-15T06:34:18;9.10;99.90
55693;DHT22;41590;53.366;5.212;2022-11-15T06:36:44;9.50;99.90
55693;DHT22;41590;53.366;5.212;2022-11-15T06:39:29;8.50;99.90
55693;DHT22;41590;53.366;5.212;2022-11-15T06:41:56;9.40;99.90
55693;DHT22;41590;53.366;5.212;2022-11-15T06:44:21;9.20;99.90
55693;DHT22;41590;53.366;5.212;2022-11-15T06:46:47;9.80;99.90
55693;DHT22;41590;53.366;5.212;2022-11-15T06:49:42;9.90;99.90
55693;DHT22;41590;53.366;5.212;2022-11-15T06:52:18;8.60;99.90
55693;DHT22;41590;53.366;5.212;2022-11-15T06:54:56;9.00;99.90
55693;DHT22;41590;53.366;5.212;2022-11-15T06:57:32;8.80;99.90
55693;DHT22;41590;53.366;5.212;2022-11-15T07:00:04;8.90;99.90
55693;DHT22;41590;53.366;5.212;2022-11-15T07:02:52;10.00;99.90
55693;DHT22;41590;53.366;5.212;2022-11-15T07:05:27;9.50;99.90
55693;DHT22;41590;53.366;5.212;2022-11-15T07:07:57;10.10;99.90
55693;DHT22;41590;53.366;5.212;2022-11-15T07:10:30;10.10;99.90
55693;DHT22;41590;53.366;5.212;2022-11-15T07:13:10;9.10;99.90
55693;DHT22;41590;53.366;5.212;2022-11-15T07:15:52;10.20;99.90
55693;DHT22;41590;53.366;5.212;2022-11-15T07:18:37;9.90;99.90
55693;DHT22;41590;53.366;5.212;2022-11-15T07:24:13;9.20;99.90
55693;DHT22;41590;53.366;5.212;2022-11-15T07:26:47;9.80;99.90
55693;DHT22;41590;53.366;5.212;2022-11-15T07:29:20;9.30;99.90
55693;DHT22;41590;53.366;5.212;2022-11-15T07:31:59;10.10;99.90
55693;DHT22;41590;53.366;5.212;2022-11-15T07:34:25;9.60;99.90
55693;DHT22;41590;53.366;5.212;2022-11-15T07:36:51;10.40;99.90
55693;DHT22;41590;53.366;5.212;2022-11-15T07:39:21;10.30;99.90
55693;DHT22;41590;53.366;5.212;2022-11-15T07:41:47;10.40;99.90
55693;DHT22;41590;53.366;5.212;2022-11-15T07:44:44;10.50;99.90
55693;DHT22;41590;53.366;5.212;2022-11-15T07:47:14;10.40;99.90
55693;DHT22;41590;53.366;5.212;2022-11-15T07:49:44;10.00;99.90
55693;DHT22;41590;53.366;5.212;2022-11-15T07:52:12;10.30;99.90
55693;DHT22;41590;53.366;5.212;2022-11-15T07:54:39;10.50;99.90
55693;DHT22;41590;53.366;5.212;2022-11-15T07:57:09;10.30;99.90
55693;DHT22;41590;53.366;5.212;2022-11-15T08:02:50;10.40;99.90
55693;DHT22;41590;53.366;5.212;2022-11-15T08:05:24;9.40;99.90
55693;DHT22;41590;53.366;5.212;2022-11-15T08:08:07;9.40;99.90
55693;DHT22;41590;53.366;5.212;2022-11-15T08:10:46;9.60;99.90
55693;DHT22;41590;53.366;5.212;2022-11-15T08:16:34;10.50;99.90
55693;DHT22;41590;53.366;5.212;2022-11-15T08:19:00;9.80;99.90
55693;DHT22;41590;53.366;5.212;2022-11-15T08:21:26;9.60;99.90
55693;DHT22;41590;53.366;5.212;2022-11-15T08:23:57;9.90;99.90
55693;DHT22;41590;53.366;5.212;2022-11-15T08:26:40;9.90;99.90
55693;DHT22;41590;53.366;5.212;2022-11-15T08:29:17;9.80;99.90
55693;DHT22;41590;53.366;5.212;2022-11-15T08:31:45;10.10;99.90
55693;DHT22;41590;53.366;5.212;2022-11-15T08:34:21;9.70;99.90
55693;DHT22;41590;53.366;5.212;2022-11-15T08:36:46;9.70;99.90
55693;DHT22;41590;53.366;5.212;2022-11-15T08:39:23;9.70;99.90
55693;DHT22;41590;53.366;5.212;2022-11-15T08:42:11;10.70;99.90
55693;DHT22;41590;53.366;5.212;2022-11-15T08:44:41;10.10;99.90
55693;DHT22;41590;53.366;5.212;2022-11-15T08:47:08;10.00;99.90
55693;DHT22;41590;53.366;5.212;2022-11-15T08:49:47;10.10;99.90
55693;DHT22;41590;53.366;5.212;2022-11-15T08:52:15;10.30;99.90
55693;DHT22;41590;53.366;5.212;2022-11-15T08:54:43;10.20;99.90
55693;DHT22;41590;53.366;5.212;2022-11-15T08:57:28;10.80;99.90
55693;DHT22;41590;53.366;5.212;2022-11-15T08:59:56;10.30;99.90
55693;DHT22;41590;53.366;5.212;2022-11-15T09:02:24;10.90;99.90
55693;DHT22;41590;53.366;5.212;2022-11-15T09:07:23;10.70;99.90
55693;DHT22;41590;53.366;5.212;2022-11-15T09:09:59;10.50;99.90
55693;DHT22;41590;53.366;5.212;2022-11-15T09:12:25;11.20;99.90
55693;DHT22;41590;53.366;5.212;2022-11-15T09:15:08;10.40;99.90
55693;DHT22;41590;53.366;5.212;2022-11-15T09:17:37;11.40;99.90
55693;DHT22;41590;53.366;5.212;2022-11-15T09:20:13;11.50;99.90
55693;DHT22;41590;53.366;5.212;2022-11-15T09:22:41;10.70;99.90
55693;DHT22;41590;53.366;5.212;2022-11-15T09:25:07;10.80;99.90
55693;DHT22;41590;53.366;5.212;2022-11-15T09:27:34;11.70;99.90
55693;DHT22;41590;53.366;5.212;2022-11-15T09:30:03;11.10;99.90
55693;DHT22;41590;53.366;5.212;2022-11-15T09:32:31;11.10;99.90
55693;DHT22;41590;53.366;5.212;2022-11-15T09:35:03;11.20;99.90
55693;DHT22;41590;53.366;5.212;2022-11-15T09:37:31;11.60;99.90
55693;DHT22;41590;53.366;5.212;2022-11-15T09:40:20;11.80;99.90
55693;DHT22;41590;53.366;5.212;2022-11-15T09:46:15;11.50;99.90
55693;DHT22;41590;53.366;5.212;2022-11-15T09:49:02;11.10;99.90
55693;DHT22;41590;53.366;5.212;2022-11-15T09:51:37;11.10;99.90
55693;DHT22;41590;53.366;5.212;2022-11-15T10:03:03;12.10;99.90
55693;DHT22;41590;53.366;5.212;2022-11-15T10:05:40;11.80;99.90
55693;DHT22;41590;53.366;5.212;2022-11-15T10:08:28;12.10;99.90
55693;DHT22;41590;53.366;5.212;2022-11-15T10:11:08;11.70;99.90
55693;DHT22;41590;53.366;5.212;2022-11-15T10:13:41;11.80;99.90
55693;DHT22;41590;53.366;5.212;2022-11-15T10:22:39;11.40;99.90
55693;DHT22;41590;53.366;5.212;2022-11-15T10:27:41;11.30;99.90
55693;DHT22;41590;53.366;5.212;2022-11-15T10:30:21;11.20;99.90
55693;DHT22;41590;53.366;5.212;2022-11-15T10:32:49;11.20;99.90
55693;DHT22;41590;53.366;5.212;2022-11-15T10:35:29;11.70;99.90
55693;DHT22;41590;53.366;5.212;2022-11-15T10:38:09;11.80;99.90
55693;DHT22;41590;53.366;5.212;2022-11-15T10:40:39;11.60;99.90
55693;DHT22;41590;53.366;5.212;2022-11-15T10:43:23;11.90;99.90
55693;DHT22;41590;53.366;5.212;2022-11-15T10:46:20;11.30;99.90
55693;DHT22;41590;53.366;5.212;2022-11-15T10:48:51;11.40;99.90
55693;DHT22;41590;53.366;5.212;2022-11-15T10:51:26;11.40;99.90
55693;DHT22;41590;53.366;5.212;2022-11-15T10:54:00;11.30;99.90
55693;DHT22;41590;53.366;5.212;2022-11-15T10:56:27;11.80;99.90
55693;DHT22;41590;53.366;5.212;2022-11-15T10:59:16;11.20;99.90
55693;DHT22;41590;53.366;5.212;2022-11-15T11:01:48;11.70;99.90
55693;DHT22;41590;53.366;5.212;2022-11-15T11:04:15;11.70;99.90
55693;DHT22;41590;53.366;5.212;2022-11-15T11:06:59;11.70;99.90
55693;DHT22;41590;53.366;5.212;2022-11-15T11:09:35;11.70;99.90
55693;DHT22;41590;53.366;5.212;2022-11-15T11:12:12;11.30;99.90
55693;DHT22;41590;53.366;5.212;2022-11-15T11:14:44;11.60;99.90
55693;DHT22;41590;53.366;5.212;2022-11-15T11:38:32;11.70;99.90
55693;DHT22;41590;53.366;5.212;2022-11-15T11:43:59;12.20;99.90
55693;DHT22;41590;53.366;5.212;2022-11-15T11:52:15;11.90;99.90
55693;DHT22;41590;53.366;5.212;2022-11-15T11:55:18;12.00;99.90
55693;DHT22;41590;53.366;5.212;2022-11-15T12:01:28;12.10;99.90
55693;DHT22;41590;53.366;5.212;2022-11-15T12:07:15;12.30;99.90
55693;DHT22;41590;53.366;5.212;2022-11-15T12:10:25;12.10;99.90
55693;DHT22;41590;53.366;5.212;2022-11-15T12:16:42;12.10;99.90
55693;DHT22;41590;53.366;5.212;2022-11-15T12:19:41;12.30;99.90
55693;DHT22;41590;53.366;5.212;2022-11-15T12:22:40;12.00;99.90
55693;DHT22;41590;53.366;5.212;2022-11-15T12:27:58;12.10;99.90
55693;DHT22;41590;53.366;5.212;2022-11-15T12:30:50;12.10;99.90
55693;DHT22;41590;53.366;5.212;2022-11-15T12:33:55;11.90;99.90
55693;DHT22;41590;53.366;5.212;2022-11-15T12:36:42;11.80;99.90
55693;DHT22;41590;53.366;5.212;2022-11-15T12:39:13;11.90;99.90
55693;DHT22;41590;53.366;5.212;2022-11-15T12:45:33;11.60;99.90
55693;DHT22;41590;53.366;5.212;2022-11-15T12:51:05;11.80;99.90
55693;DHT22;41590;53.366;5.212;2022-11-15T12:53:33;11.60;99.90
55693;DHT22;41590;53.366;5.212;2022-11-15T13:04:26;11.70;99.90
55693;DHT22;41590;53.366;5.212;2022-11-15T13:07:03;11.50;99.90
55693;DHT22;41590;53.366;5.212;2022-11-15T13:12:08;11.70;99.90
55693;DHT22;41590;53.366;5.212;2022-11-15T13:14:44;11.70;99.90
55693;DHT22;41590;53.366;5.212;2022-11-15T13:28:32;11.50;99.90
55693;DHT22;41590;53.366;5.212;2022-11-15T13:31:05;11.30;99.90
55693;DHT22;41590;53.366;5.212;2022-11-15T13:33:40;11.40;99.90
55693;DHT22;41590;53.366;5.212;2022-11-15T13:36:29;11.50;99.90
55693;DHT22;41590;53.366;5.212;2022-11-15T13:39:00;11.30;99.90
55693;DHT22;41590;53.366;5.212;2022-11-15T13:41:35;11.40;99.90
55693;DHT22;41590;53.366;5.212;2022-11-15T13:44:05;11.20;99.90
55693;DHT22;41590;53.366;5.212;2022-11-15T13:46:44;11.20;99.90
55693;DHT22;41590;53.366;5.212;2022-11-15T13:49:11;11.30;99.90
55693;DHT22;41590;53.366;5.212;2022-11-15T13:51:52;11.50;99.90
55693;DHT22;41590;53.366;5.212;2022-11-15T13:54:36;11.60;99.90
55693;DHT22;41590;53.366;5.212;2022-11-15T13:57:14;11.30;99.90
55693;DHT22;41590;53.366;5.212;2022-11-15T14:02:34;11.50;99.90
55693;DHT22;41590;53.366;5.212;2022-11-15T14:05:24;11.40;99.90
55693;DHT22;41590;53.366;5.212;2022-11-15T14:08:01;11.50;99.90
55693;DHT22;41590;53.366;5.212;2022-11-15T14:12:59;11.30;99.90
55693;DHT22;41590;53.366;5.212;2022-11-15T14:15:30;11.20;99.90
55693;DHT22;41590;53.366;5.212;2022-11-15T14:17:56;11.30;99.90
55693;DHT22;41590;53.366;5.212;2022-11-15T14:22:53;10.90;99.90
55693;DHT22;41590;53.366;5.212;2022-11-15T14:25:22;11.20;99.90
55693;DHT22;41590;53.366;5.212;2022-11-15T14:30:46;10.80;99.90
55693;DHT22;41590;53.366;5.212;2022-11-15T14:35:53;10.90;99.90
55693;DHT22;41590;53.366;5.212;2022-11-15T14:38:19;11.10;99.90
55693;DHT22;41590;53.366;5.212;2022-11-15T14:40:45;10.80;99.90
55693;DHT22;41590;53.366;5.212;2022-11-15T14:43:12;10.70;99.90
55693;DHT22;41590;53.366;5.212;2022-11-15T14:45:40;10.70;99.90
55693;DHT22;41590;53.366;5.212;2022-11-15T14:48:08;10.70;99.90
55693;DHT22;41590;53.366;5.212;2022-11-15T14:50:36;10.70;99.90
55693;DHT22;41590;53.366;5.212;2022-11-15T14:53:05;10.70;99.90
55693;DHT22;41590;53.366;5.212;2022-11-15T14:55:39;10.70;99.90
55693;DHT22;41590;53.366;5.212;2022-11-15T14:58:12;10.50;99.90
55693;DHT22;41590;53.366;5.212;2022-11-15T15:00:44;10.70;99.90
55693;DHT22;41590;53.366;5.212;2022-11-15T15:03:11;10.60;99.90
55693;DHT22;41590;53.366;5.212;2022-11-15T15:05:43;10.80;99.90
55693;DHT22;41590;53.366;5.212;2022-11-15T15:08:11;10.50;99.90
55693;DHT22;41590;53.366;5.212;2022-11-15T15:10:44;10.30;99.90
55693;DHT22;41590;53.366;5.212;2022-11-15T15:13:24;10.40;99.90
55693;DHT22;41590;53.366;5.212;2022-11-15T15:15:52;10.40;99.90
55693;DHT22;41590;53.366;5.212;2022-11-15T15:18:18;10.60;99.90
55693;DHT22;41590;53.366;5.212;2022-11-15T15:20:53;10.30;99.90
55693;DHT22;41590;53.366;5.212;2022-11-15T15:23:20;10.20;99.90
55693;DHT22;41590;53.366;5.212;2022-11-15T15:25:47;10.60;99.90
55693;DHT22;41590;53.366;5.212;2022-11-15T15:28:14;10.40;99.90
55693;DHT22;41590;53.366;5.212;2022-11-15T15:30:41;10.40;99.90
55693;DHT22;41590;53.366;5.212;2022-11-15T15:33:07;10.60;99.90
55693;DHT22;41590;53.366;5.212;2022-11-15T15:35:34;10.10;99.90
55693;DHT22;41590;53.366;5.212;2022-11-15T15:38:02;10.40;99.90
55693;DHT22;41590;53.366;5.212;2022-11-15T15:40:30;9.90;99.90
55693;DHT22;41590;53.366;5.212;2022-11-15T15:42:56;10.00;99.90
55693;DHT22;41590;53.366;5.212;2022-11-15T15:45:22;10.00;99.90
55693;DHT22;41590;53.366;5.212;2022-11-15T15:47:51;10.30;99.90
55693;DHT22;41590;53.366;5.212;2022-11-15T15:50:38;9.80;99.90
55693;DHT22;41590;53.366;5.212;2022-11-15T15:53:04;10.10;99.90
55693;DHT22;41590;53.366;5.212;2022-11-15T15:55:31;10.20;99.90
55693;DHT22;41590;53.366;5.212;2022-11-15T15:58:18;9.80;99.90
55693;DHT22;41590;53.366;5.212;2022-11-15T16:07:27;10.00;99.90
55693;DHT22;41590;53.366;5.212;2022-11-15T16:12:59;9.90;99.90
55693;DHT22;41590;53.366;5.212;2022-11-15T16:15:28;10.30;99.90
55693;DHT22;41590;53.366;5.212;2022-11-15T16:17:59;10.30;99.90
55693;DHT22;41590;53.366;5.212;2022-11-15T16:20:43;10.30;99.90
55693;DHT22;41590;53.366;5.212;2022-11-15T16:23:16;10.10;99.90
55693;DHT22;41590;53.366;5.212;2022-11-15T16:25:51;10.20;99.90
55693;DHT22;41590;53.366;5.212;2022-11-15T16:28:21;10.00;99.90
55693;DHT22;41590;53.366;5.212;2022-11-15T16:30:49;10.00;99.90
55693;DHT22;41590;53.366;5.212;2022-11-15T16:33:15;10.30;99.90
55693;DHT22;41590;53.366;5.212;2022-11-15T16:35:45;10.00;99.90
55693;DHT22;41590;53.366;5.212;2022-11-15T16:38:14;10.00;99.90
55693;DHT22;41590;53.366;5.212;2022-11-15T16:40:41;10.30;99.90
55693;DHT22;41590;53.366;5.212;2022-11-15T16:43:10;10.20;99.90
55693;DHT22;41590;53.366;5.212;2022-11-15T16:45:37;9.90;99.90
55693;DHT22;41590;53.366;5.212;2022-11-15T16:48:04;10.00;99.90
55693;DHT22;41590;53.366;5.212;2022-11-15T16:50:33;10.20;99.90
55693;DHT22;41590;53.366;5.212;2022-11-15T16:53:05;9.90;99.90
55693;DHT22;41590;53.366;5.212;2022-11-15T16:55:32;9.90;99.90
55693;DHT22;41590;53.366;5.212;2022-11-15T16:57:57;10.00;99.90
55693;DHT22;41590;53.366;5.212;2022-11-15T17:00:24;9.90;99.90
55693;DHT22;41590;53.366;5.212;2022-11-15T17:02:51;10.00;99.90
55693;DHT22;41590;53.366;5.212;2022-11-15T17:05:19;10.00;99.90
55693;DHT22;41590;53.366;5.212;2022-11-15T17:07:50;9.90;99.90
55693;DHT22;41590;53.366;5.212;2022-11-15T17:10:21;10.40;99.90
55693;DHT22;41590;53.366;5.212;2022-11-15T17:15:49;10.00;99.90
55693;DHT22;41590;53.366;5.212;2022-11-15T17:18:15;10.20;99.90
55693;DHT22;41590;53.366;5.212;2022-11-15T17:20:43;10.40;99.90
55693;DHT22;41590;53.366;5.212;2022-11-15T17:23:13;10.10;99.90
55693;DHT22;41590;53.366;5.212;2022-11-15T17:25:39;10.10;99.90
55693;DHT22;41590;53.366;5.212;2022-11-15T17:28:05;10.40;99.90
55693;DHT22;41590;53.366;5.212;2022-11-15T17:30:31;10.40;99.90
55693;DHT22;41590;53.366;5.212;2022-11-15T17:33:05;10.30;99.90
55693;DHT22;41590;53.366;5.212;2022-11-15T17:35:33;10.30;99.90
55693;DHT22;41590;53.366;5.212;2022-11-15T17:37:59;10.30;99.90
55693;DHT22;41590;53.366;5.212;2022-11-15T17:40:25;10.50;99.90
55693;DHT22;41590;53.366;5.212;2022-11-15T17:42:51;10.40;99.90
55693;DHT22;41590;53.366;5.212;2022-11-15T17:45:16;10.60;99.90
55693;DHT22;41590;53.366;5.212;2022-11-15T17:47:42;10.40;99.90
55693;DHT22;41590;53.366;5.212;2022-11-15T17:50:08;10.40;99.90
55693;DHT22;41590;53.366;5.212;2022-11-15T17:52:35;10.70;99.90
55693;DHT22;41590;53.366;5.212;2022-11-15T17:55:00;10.40;99.90
55693;DHT22;41590;53.366;5.212;2022-11-15T17:57:26;10.40;99.90
55693;DHT22;41590;53.366;5.212;2022-11-15T17:59:53;10.40;99.90
55693;DHT22;41590;53.366;5.212;2022-11-15T18:02:19;10.80;99.90
55693;DHT22;41590;53.366;5.212;2022-11-15T18:04:45;10.70;99.90
55693;DHT22;41590;53.366;5.212;2022-11-15T18:07:11;10.50;99.90
55693;DHT22;41590;53.366;5.212;2022-11-15T18:09:38;10.60;99.90
55693;DHT22;41590;53.366;5.212;2022-11-15T18:12:09;10.60;99.90
55693;DHT22;41590;53.366;5.212;2022-11-15T18:14:38;10.60;99.90
55693;DHT22;41590;53.366;5.212;2022-11-15T18:17:04;10.70;99.90
55693;DHT22;41590;53.366;5.212;2022-11-15T18:19:31;10.60;99.90
55693;DHT22;41590;53.366;5.212;2022-11-15T18:21:57;10.70;99.90
55693;DHT22;41590;53.366;5.212;2022-11-15T18:24:32;10.60;99.90
55693;DHT22;41590;53.366;5.212;2022-11-15T18:27:00;10.80;99.90
55693;DHT22;41590;53.366;5.212;2022-11-15T18:29:26;10.60;99.90
55693;DHT22;41590;53.366;5.212;2022-11-15T18:31:53;10.90;99.90
55693;DHT22;41590;53.366;5.212;2022-11-15T18:34:24;10.60;99.90
55693;DHT22;41590;53.366;5.212;2022-11-15T18:36:51;10.60;99.90
55693;DHT22;41590;53.366;5.212;2022-11-15T18:39:17;10.90;99.90
55693;DHT22;41590;53.366;5.212;2022-11-15T18:41:44;10.80;99.90
55693;DHT22;41590;53.366;5.212;2022-11-15T18:44:11;10.80;99.90
55693;DHT22;41590;53.366;5.212;2022-11-15T18:46:37;10.80;99.90
55693;DHT22;41590;53.366;5.212;2022-11-15T18:49:04;10.90;99.90
55693;DHT22;41590;53.366;5.212;2022-11-15T18:51:34;10.90;99.90
55693;DHT22;41590;53.366;5.212;2022-11-15T18:54:00;10.70;99.90
55693;DHT22;41590;53.366;5.212;2022-11-15T18:56:29;10.50;99.90
55693;DHT22;41590;53.366;5.212;2022-11-15T18:58:57;10.40;99.90
55693;DHT22;41590;53.366;5.212;2022-11-15T19:01:29;10.80;99.90
55693;DHT22;41590;53.366;5.212;2022-11-15T19:03:57;10.60;99.90
55693;DHT22;41590;53.366;5.212;2022-11-15T19:06:26;10.70;99.90
55693;DHT22;41590;53.366;5.212;2022-11-15T19:08:55;10.50;99.90
55693;DHT22;41590;53.366;5.212;2022-11-15T19:11:26;10.40;99.90
55693;DHT22;41590;53.366;5.212;2022-11-15T19:13:55;10.70;99.90
55693;DHT22;41590;53.366;5.212;2022-11-15T19:16:25;10.10;99.90
55693;DHT22;41590;53.366;5.212;2022-11-15T19:18:57;10.40;99.90
55693;DHT22;41590;53.366;5.212;2022-11-15T19:21:24;10.10;99.90
55693;DHT22;41590;53.366;5.212;2022-11-15T19:23:50;10.20;99.90
55693;DHT22;41590;53.366;5.212;2022-11-15T19:26:22;10.00;99.90
55693;DHT22;41590;53.366;5.212;2022-11-15T19:28:59;10.00;99.90
55693;DHT22;41590;53.366;5.212;2022-11-15T19:31:29;10.40;99.90
55693;DHT22;41590;53.366;5.212;2022-11-15T19:34:02;9.90;99.90
55693;DHT22;41590;53.366;5.212;2022-11-15T19:36:35;9.90;99.90
55693;DHT22;41590;53.366;5.212;2022-11-15T19:39:03;9.80;99.90
55693;DHT22;41590;53.366;5.212;2022-11-15T19:41:33;10.10;99.90
55693;DHT22;41590;53.366;5.212;2022-11-15T19:43:59;10.20;99.90
55693;DHT22;41590;53.366;5.212;2022-11-15T19:46:25;9.80;99.90
55693;DHT22;41590;53.366;5.212;2022-11-15T19:48:53;10.30;99.90
55693;DHT22;41590;53.366;5.212;2022-11-15T19:51:25;10.30;99.90
55693;DHT22;41590;53.366;5.212;2022-11-15T19:53:52;10.00;99.90
55693;DHT22;41590;53.366;5.212;2022-11-15T19:56:20;9.80;99.90
55693;DHT22;41590;53.366;5.212;2022-11-15T19:58:49;10.30;99.90
55693;DHT22;41590;53.366;5.212;2022-11-15T20:01:23;9.70;99.90
55693;DHT22;41590;53.366;5.212;2022-11-15T20:03:51;9.70;99.90